sensor_id;sensor_type;location;lat;lon;timestamp;pressure;altitude;pressure_sealevel;temperature;humidity
69574;BME280;62840;52.366;5.980;2024-03-06T00:01:31;101730.44;;;7.77;73.90
69574;BME280;62840;52.366;5.980;2024-03-06T00:03:59;101735.75;;;7.77;73.81
69574;BME280;62840;52.366;5.980;2024-03-06T00:06:25;101735.75;;;7.77;73.97
69574;BME280;62840;52.366;5.980;2024-03-06T00:08:51;101729.72;;;7.73;73.87
69574;BME280;62840;52.366;5.980;2024-03-06T00:11:17;101737.63;;;7.74;73.85
69574;BME280;62840;52.366;5.980;2024-03-06T00:13:43;101734.88;;;7.76;73.98
69574;BME280;62840;52.366;5.980;2024-03-06T00:16:11;101748.06;;;7.78;73.64
69574;BME280;62840;52.366;5.980;2024-03-06T00:18:37;101748.25;;;7.74;73.77
69574;BME280;62840;52.366;5.980;2024-03-06T00:21:03;101757.13;;;7.73;73.92
69574;BME280;62840;52.366;5.980;2024-03-06T00:23:29;101750.13;;;7.72;74.03
69574;BME280;62840;52.366;5.980;2024-03-06T00:25:55;101755.75;;;7.66;73.97
69574;BME280;62840;52.366;5.980;2024-03-06T00:28:21;101756.47;;;7.70;74.04
69574;BME280;62840;52.366;5.980;2024-03-06T00:30:47;101759.97;;;7.70;74.16
69574;BME280;62840;52.366;5.980;2024-03-06T00:33:16;101762.63;;;7.70;74.08
69574;BME280;62840;52.366;5.980;2024-03-06T00:35:42;101764.34;;;7.71;74.09
69574;BME280;62840;52.366;5.980;2024-03-06T00:38:08;101764.34;;;7.71;74.08
69574;BME280;62840;52.366;5.980;2024-03-06T00:40:33;101767.84;;;7.72;74.01
69574;BME280;62840;52.366;5.980;2024-03-06T00:42:59;101765.19;;;7.72;74.11
69574;BME280;62840;52.366;5.980;2024-03-06T00:45:25;101767.09;;;7.70;74.02
69574;BME280;62840;52.366;5.980;2024-03-06T00:47:51;101769.81;;;7.68;74.15
69574;BME280;62840;52.366;5.980;2024-03-06T00:50:19;101773.25;;;7.70;74.12
69574;BME280;62840;52.366;5.980;2024-03-06T00:52:45;101777.69;;;7.70;74.06
69574;BME280;62840;52.366;5.980;2024-03-06T00:55:11;101775.97;;;7.69;74.05
69574;BME280;62840;52.366;5.980;2024-03-06T00:57:37;101773.44;;;7.67;74.08
69574;BME280;62840;52.366;5.980;2024-03-06T01:00:03;101780.44;;;7.68;74.03
69574;BME280;62840;52.366;5.980;2024-03-06T01:02:30;101789.34;;;7.67;74.07
69574;BME280;62840;52.366;5.980;2024-03-06T01:04:56;101788.41;;;7.68;74.02
69574;BME280;62840;52.366;5.980;2024-03-06T01:07:25;101786.59;;;7.69;73.86
69574;BME280;62840;52.366;5.980;2024-03-06T01:09:51;101793.72;;;7.68;73.87
69574;BME280;62840;52.366;5.980;2024-03-06T01:12:16;101791.13;;;7.67;73.95
69574;BME280;62840;52.366;5.980;2024-03-06T01:14:42;101792.94;;;7.66;74.02
69574;BME280;62840;52.366;5.980;2024-03-06T01:17:08;101789.50;;;7.64;74.07
69574;BME280;62840;52.366;5.980;2024-03-06T01:19:34;101798.25;;;7.66;74.17
69574;BME280;62840;52.366;5.980;2024-03-06T01:22:00;101802.72;;;7.66;74.10
69574;BME280;62840;52.366;5.980;2024-03-06T01:24:28;101802.78;;;7.64;74.21
69574;BME280;62840;52.366;5.980;2024-03-06T01:26:54;101801.84;;;7.65;74.11
69574;BME280;62840;52.366;5.980;2024-03-06T01:29:20;101796.53;;;7.65;74.13
69574;BME280;62840;52.366;5.980;2024-03-06T01:31:46;101805.44;;;7.64;74.05
69574;BME280;62840;52.366;5.980;2024-03-06T01:34:12;101808.88;;;7.66;74.24
69574;BME280;62840;52.366;5.980;2024-03-06T01:36:37;101819.50;;;7.66;74.15
69574;BME280;62840;52.366;5.980;2024-03-06T01:39:03;101814.19;;;7.66;74.24
69574;BME280;62840;52.366;5.980;2024-03-06T01:41:32;101809.72;;;7.67;74.32
69574;BME280;62840;52.366;5.980;2024-03-06T01:43:58;101808.88;;;7.66;74.26
69574;BME280;62840;52.366;5.980;2024-03-06T01:46:24;101811.44;;;7.68;74.20
69574;BME280;62840;52.366;5.980;2024-03-06T01:48:50;101811.38;;;7.69;74.10
69574;BME280;62840;52.366;5.980;2024-03-06T01:51:16;101813.16;;;7.69;74.02
69574;BME280;62840;52.366;5.980;2024-03-06T01:53:42;101812.28;;;7.68;74.24
69574;BME280;62840;52.366;5.980;2024-03-06T01:56:08;101815.91;;;7.67;74.16
69574;BME280;62840;52.366;5.980;2024-03-06T01:58:39;101813.25;;;7.67;74.30
69574;BME280;62840;52.366;5.980;2024-03-06T02:01:06;101815.28;;;7.62;74.25
69574;BME280;62840;52.366;5.980;2024-03-06T02:03:33;101823.88;;;7.67;74.25
69574;BME280;62840;52.366;5.980;2024-03-06T02:06:00;101823.09;;;7.65;74.37
69574;BME280;62840;52.366;5.980;2024-03-06T02:08:28;101824.97;;;7.63;74.61
69574;BME280;62840;52.366;5.980;2024-03-06T02:10:54;101821.38;;;7.64;74.28
69574;BME280;62840;52.366;5.980;2024-03-06T02:13:20;101817.00;;;7.63;74.37
69574;BME280;62840;52.366;5.980;2024-03-06T02:15:49;101830.09;;;7.66;74.27
69574;BME280;62840;52.366;5.980;2024-03-06T02:18:15;101828.41;;;7.65;74.30
69574;BME280;62840;52.366;5.980;2024-03-06T02:20:43;101830.28;;;7.63;74.23
69574;BME280;62840;52.366;5.980;2024-03-06T02:23:09;101833.72;;;7.65;74.38
69574;BME280;62840;52.366;5.980;2024-03-06T02:25:35;101838.06;;;7.66;74.38
69574;BME280;62840;52.366;5.980;2024-03-06T02:28:01;101836.38;;;7.65;74.33
69574;BME280;62840;52.366;5.980;2024-03-06T02:30:27;101840.72;;;7.66;74.34
69574;BME280;62840;52.366;5.980;2024-03-06T02:32:53;101844.16;;;7.68;74.33
69574;BME280;62840;52.366;5.980;2024-03-06T02:35:19;101837.16;;;7.67;74.46
69574;BME280;62840;52.366;5.980;2024-03-06T02:37:47;101838.84;;;7.68;74.35
69574;BME280;62840;52.366;5.980;2024-03-06T02:40:13;101845.88;;;7.69;74.40
69574;BME280;62840;52.366;5.980;2024-03-06T02:42:39;101835.09;;;7.72;74.24
69574;BME280;62840;52.366;5.980;2024-03-06T02:45:06;101837.75;;;7.72;74.31
69574;BME280;62840;52.366;5.980;2024-03-06T02:47:33;101842.09;;;7.73;74.42
69574;BME280;62840;52.366;5.980;2024-03-06T02:50:00;101840.41;;;7.72;74.37
69574;BME280;62840;52.366;5.980;2024-03-06T02:52:26;101842.09;;;7.73;74.22
69574;BME280;62840;52.366;5.980;2024-03-06T02:54:55;101839.44;;;7.73;74.14
69574;BME280;62840;52.366;5.980;2024-03-06T02:57:21;101842.09;;;7.73;74.22
69574;BME280;62840;52.366;5.980;2024-03-06T02:59:47;101841.25;;;7.73;74.16
69574;BME280;62840;52.366;5.980;2024-03-06T03:02:13;101843.84;;;7.74;74.14
69574;BME280;62840;52.366;5.980;2024-03-06T03:04:39;101843.84;;;7.74;74.16
69574;BME280;62840;52.366;5.980;2024-03-06T03:07:05;101850.94;;;7.74;74.27
69574;BME280;62840;52.366;5.980;2024-03-06T03:09:30;101853.69;;;7.72;74.09
69574;BME280;62840;52.366;5.980;2024-03-06T03:11:59;101853.59;;;7.74;74.09
69574;BME280;62840;52.366;5.980;2024-03-06T03:14:25;101852.72;;;7.73;74.17
69574;BME280;62840;52.366;5.980;2024-03-06T03:16:51;101852.81;;;7.72;74.22
69574;BME280;62840;52.366;5.980;2024-03-06T03:19:16;101851.19;;;7.69;74.21
69574;BME280;62840;52.366;5.980;2024-03-06T03:21:44;101859.00;;;7.72;74.15
69574;BME280;62840;52.366;5.980;2024-03-06T03:24:10;101855.47;;;7.72;74.29
69574;BME280;62840;52.366;5.980;2024-03-06T03:26:36;101858.22;;;7.70;74.36
69574;BME280;62840;52.366;5.980;2024-03-06T03:29:04;101865.31;;;7.70;74.27
69574;BME280;62840;52.366;5.980;2024-03-06T03:31:30;101865.41;;;7.68;74.24
69574;BME280;62840;52.366;5.980;2024-03-06T03:33:56;101862.75;;;7.68;74.42
69574;BME280;62840;52.366;5.980;2024-03-06T03:36:22;101854.78;;;7.68;74.36
69574;BME280;62840;52.366;5.980;2024-03-06T03:38:48;101861.81;;;7.69;74.29
69574;BME280;62840;52.366;5.980;2024-03-06T03:41:14;101860.09;;;7.68;74.32
69574;BME280;62840;52.366;5.980;2024-03-06T03:43:41;101863.59;;;7.69;74.41
69574;BME280;62840;52.366;5.980;2024-03-06T03:46:10;101869.84;;;7.68;74.28
69574;BME280;62840;52.366;5.980;2024-03-06T03:48:36;101868.84;;;7.70;74.40
69574;BME280;62840;52.366;5.980;2024-03-06T03:51:02;101867.91;;;7.71;74.31
69574;BME280;62840;52.366;5.980;2024-03-06T03:53:29;101872.25;;;7.72;74.40
69574;BME280;62840;52.366;5.980;2024-03-06T03:55:54;101866.94;;;7.72;74.42
69574;BME280;62840;52.366;5.980;2024-03-06T03:58:20;101866.94;;;7.72;74.33
69574;BME280;62840;52.366;5.980;2024-03-06T04:00:46;101863.53;;;7.70;74.32
69574;BME280;62840;52.366;5.980;2024-03-06T04:03:15;101867.13;;;7.69;74.46
69574;BME280;62840;52.366;5.980;2024-03-06T04:05:41;101868.06;;;7.68;74.35
69574;BME280;62840;52.366;5.980;2024-03-06T04:08:07;101862.91;;;7.65;74.35
69574;BME280;62840;52.366;5.980;2024-03-06T04:10:32;101871.03;;;7.62;74.36
69574;BME280;62840;52.366;5.980;2024-03-06T04:12:58;101868.47;;;7.61;74.36
69574;BME280;62840;52.366;5.980;2024-03-06T04:15:24;101871.38;;;7.56;74.33
69574;BME280;62840;52.366;5.980;2024-03-06T04:17:50;101869.81;;;7.52;74.38
69574;BME280;62840;52.366;5.980;2024-03-06T04:20:19;101877.19;;;7.47;74.18
69574;BME280;62840;52.366;5.980;2024-03-06T04:22:45;101869.47;;;7.42;74.30
69574;BME280;62840;52.366;5.980;2024-03-06T04:25:10;101877.50;;;7.41;74.27
69574;BME280;62840;52.366;5.980;2024-03-06T04:27:36;101875.91;;;7.37;74.03
69574;BME280;62840;52.366;5.980;2024-03-06T04:30:03;101878.72;;;7.33;74.29
69574;BME280;62840;52.366;5.980;2024-03-06T04:32:30;101881.69;;;7.27;74.15
69574;BME280;62840;52.366;5.980;2024-03-06T04:34:56;101885.44;;;7.23;74.16
69574;BME280;62840;52.366;5.980;2024-03-06T04:37:24;101881.16;;;7.21;74.27
69574;BME280;62840;52.366;5.980;2024-03-06T04:39:50;101885.75;;;7.17;73.99
69574;BME280;62840;52.366;5.980;2024-03-06T04:42:16;101892.19;;;7.13;74.00
69574;BME280;62840;52.366;5.980;2024-03-06T04:44:42;101889.84;;;7.07;73.99
69574;BME280;62840;52.366;5.980;2024-03-06T04:47:08;101888.28;;;7.03;73.92
69574;BME280;62840;52.366;5.980;2024-03-06T04:49:34;101898.25;;;6.98;73.89
69574;BME280;62840;52.366;5.980;2024-03-06T04:52:00;101895.91;;;6.91;73.91
69574;BME280;62840;52.366;5.980;2024-03-06T04:54:28;101896.06;;;6.88;73.79
69574;BME280;62840;52.366;5.980;2024-03-06T04:56:54;101907.81;;;6.83;73.90
69574;BME280;62840;52.366;5.980;2024-03-06T04:59:20;101898.53;;;6.74;73.78
69574;BME280;62840;52.366;5.980;2024-03-06T05:01:47;101907.56;;;6.70;73.91
69574;BME280;62840;52.366;5.980;2024-03-06T05:04:12;101913.19;;;6.64;73.85
69574;BME280;62840;52.366;5.980;2024-03-06T05:06:38;101922.22;;;6.60;73.99
69574;BME280;62840;52.366;5.980;2024-03-06T05:09:04;101932.09;;;6.56;73.96
69574;BME280;62840;52.366;5.980;2024-03-06T05:11:33;101924.38;;;6.51;73.91
69574;BME280;62840;52.366;5.980;2024-03-06T05:13:59;101929.84;;;6.48;73.73
69574;BME280;62840;52.366;5.980;2024-03-06T05:16:25;101930.91;;;6.44;73.84
69574;BME280;62840;52.366;5.980;2024-03-06T05:18:51;101937.28;;;6.40;73.81
69574;BME280;62840;52.366;5.980;2024-03-06T05:21:17;101933.22;;;6.33;73.74
69574;BME280;62840;52.366;5.980;2024-03-06T05:23:43;101938.72;;;6.28;73.89
69574;BME280;62840;52.366;5.980;2024-03-06T05:26:08;101945.03;;;6.26;73.96
69574;BME280;62840;52.366;5.980;2024-03-06T05:28:37;101945.19;;;6.23;73.83
69574;BME280;62840;52.366;5.980;2024-03-06T05:31:16;101955.91;;;6.20;73.93
69574;BME280;62840;52.366;5.980;2024-03-06T05:33:44;101955.22;;;6.16;74.28
69574;BME280;62840;52.366;5.980;2024-03-06T05:36:10;101954.31;;;6.16;74.08
69574;BME280;62840;52.366;5.980;2024-03-06T05:38:35;101956.06;;;6.17;74.15
69574;BME280;62840;52.366;5.980;2024-03-06T05:41:01;101965.00;;;6.14;74.28
69574;BME280;62840;52.366;5.980;2024-03-06T05:43:27;101968.50;;;6.15;74.25
69574;BME280;62840;52.366;5.980;2024-03-06T05:45:56;101964.91;;;6.16;74.31
69574;BME280;62840;52.366;5.980;2024-03-06T05:48:22;101974.53;;;6.18;74.44
69574;BME280;62840;52.366;5.980;2024-03-06T05:50:49;101970.94;;;6.19;74.38
69574;BME280;62840;52.366;5.980;2024-03-06T05:53:15;101977.09;;;6.20;74.36
69574;BME280;62840;52.366;5.980;2024-03-06T05:55:41;101971.78;;;6.20;74.41
69574;BME280;62840;52.366;5.980;2024-03-06T05:58:07;101975.41;;;6.19;74.49
69574;BME280;62840;52.366;5.980;2024-03-06T06:00:32;101984.13;;;6.21;74.45
69574;BME280;62840;52.366;5.980;2024-03-06T06:03:01;101982.41;;;6.20;74.52
69574;BME280;62840;52.366;5.980;2024-03-06T06:05:27;101986.63;;;6.24;74.47
69574;BME280;62840;52.366;5.980;2024-03-06T06:07:53;101998.00;;;6.26;74.69
69574;BME280;62840;52.366;5.980;2024-03-06T06:10:18;101991.72;;;6.28;74.64
69574;BME280;62840;52.366;5.980;2024-03-06T06:12:44;101997.84;;;6.29;74.44
69574;BME280;62840;52.366;5.980;2024-03-06T06:15:10;102004.91;;;6.30;74.76
69574;BME280;62840;52.366;5.980;2024-03-06T06:17:36;102003.03;;;6.32;74.78
69574;BME280;62840;52.366;5.980;2024-03-06T06:20:06;102009.19;;;6.33;74.59
69574;BME280;62840;52.366;5.980;2024-03-06T06:22:33;102018.78;;;6.35;74.70
69574;BME280;62840;52.366;5.980;2024-03-06T06:24:58;102013.31;;;6.38;74.92
69574;BME280;62840;52.366;5.980;2024-03-06T06:27:24;102021.16;;;6.41;74.92
69574;BME280;62840;52.366;5.980;2024-03-06T06:29:50;102021.94;;;6.43;74.74
69574;BME280;62840;52.366;5.980;2024-03-06T06:32:16;102023.66;;;6.44;74.94
69574;BME280;62840;52.366;5.980;2024-03-06T06:34:42;102039.41;;;6.47;74.94
69574;BME280;62840;52.366;5.980;2024-03-06T06:37:10;102032.25;;;6.49;74.89
69574;BME280;62840;52.366;5.980;2024-03-06T06:39:36;102031.44;;;6.47;74.88
69574;BME280;62840;52.366;5.980;2024-03-06T06:42:02;102046.97;;;6.57;75.10
69574;BME280;62840;52.366;5.980;2024-03-06T06:44:28;102057.47;;;6.58;74.96
69574;BME280;62840;52.366;5.980;2024-03-06T06:46:54;102052.16;;;6.58;74.79
69574;BME280;62840;52.366;5.980;2024-03-06T06:49:20;102060.22;;;6.57;74.84
69574;BME280;62840;52.366;5.980;2024-03-06T06:51:46;102063.78;;;6.56;74.91
69574;BME280;62840;52.366;5.980;2024-03-06T06:54:14;102062.91;;;6.55;74.81
69574;BME280;62840;52.366;5.980;2024-03-06T06:56:40;102067.38;;;6.55;74.77
69574;BME280;62840;52.366;5.980;2024-03-06T06:59:06;102067.50;;;6.51;74.91
69574;BME280;62840;52.366;5.980;2024-03-06T07:01:32;102068.44;;;6.50;75.05
69574;BME280;62840;52.366;5.980;2024-03-06T07:03:58;102078.09;;;6.51;75.01
69574;BME280;62840;52.366;5.980;2024-03-06T07:06:24;102080.75;;;6.51;75.16
69574;BME280;62840;52.366;5.980;2024-03-06T07:08:50;102083.38;;;6.51;75.19
69574;BME280;62840;52.366;5.980;2024-03-06T07:11:19;102097.44;;;6.54;75.10
69574;BME280;62840;52.366;5.980;2024-03-06T07:13:45;102090.44;;;6.53;75.04
69574;BME280;62840;52.366;5.980;2024-03-06T07:16:11;102095.72;;;6.53;75.03
69574;BME280;62840;52.366;5.980;2024-03-06T07:18:36;102088.56;;;6.55;75.06
69574;BME280;62840;52.366;5.980;2024-03-06T07:21:02;102093.88;;;6.55;75.18
69574;BME280;62840;52.366;5.980;2024-03-06T07:23:28;102093.72;;;6.58;75.19
69574;BME280;62840;52.366;5.980;2024-03-06T07:25:54;102099.03;;;6.58;75.17
69574;BME280;62840;52.366;5.980;2024-03-06T07:28:23;102105.97;;;6.60;75.03
69574;BME280;62840;52.366;5.980;2024-03-06T07:30:48;102107.75;;;6.60;75.28
69574;BME280;62840;52.366;5.980;2024-03-06T07:33:14;102123.50;;;6.63;75.16
69574;BME280;62840;52.366;5.980;2024-03-06T07:35:40;102124.31;;;6.65;75.12
69574;BME280;62840;52.366;5.980;2024-03-06T07:38:06;102125.97;;;6.67;75.21
69574;BME280;62840;52.366;5.980;2024-03-06T07:40:32;102123.41;;;6.66;75.21
69574;BME280;62840;52.366;5.980;2024-03-06T07:42:58;102121.66;;;6.65;75.14
69574;BME280;62840;52.366;5.980;2024-03-06T07:45:28;102123.41;;;6.66;74.95
69574;BME280;62840;52.366;5.980;2024-03-06T07:47:54;102124.25;;;6.66;75.13
69574;BME280;62840;52.366;5.980;2024-03-06T07:50:20;102119.81;;;6.67;75.22
69574;BME280;62840;52.366;5.980;2024-03-06T07:52:46;102130.41;;;6.67;74.98
69574;BME280;62840;52.366;5.980;2024-03-06T07:55:12;102132.16;;;6.68;75.19
69574;BME280;62840;52.366;5.980;2024-03-06T07:57:38;102133.84;;;6.69;75.24
69574;BME280;62840;52.366;5.980;2024-03-06T08:00:07;102142.59;;;6.71;75.16
69574;BME280;62840;52.366;5.980;2024-03-06T08:02:36;102144.44;;;6.69;75.36
69574;BME280;62840;52.366;5.980;2024-03-06T08:05:05;102145.19;;;6.72;75.17
69574;BME280;62840;52.366;5.980;2024-03-06T08:07:31;102142.44;;;6.74;75.17
69574;BME280;62840;52.366;5.980;2024-03-06T08:09:57;102143.38;;;6.73;75.14
69574;BME280;62840;52.366;5.980;2024-03-06T08:12:23;102151.34;;;6.73;75.07
69574;BME280;62840;52.366;5.980;2024-03-06T08:14:49;102153.03;;;6.74;75.23
69574;BME280;62840;52.366;5.980;2024-03-06T08:17:15;102151.19;;;6.76;75.27
69574;BME280;62840;52.366;5.980;2024-03-06T08:19:43;102158.22;;;6.77;75.32
69574;BME280;62840;52.366;5.980;2024-03-06T08:22:09;102162.53;;;6.80;75.17
69574;BME280;62840;52.366;5.980;2024-03-06T08:24:35;102164.25;;;6.81;75.09
69574;BME280;62840;52.366;5.980;2024-03-06T08:27:01;102169.34;;;6.85;75.07
69574;BME280;62840;52.366;5.980;2024-03-06T08:29:26;102170.13;;;6.87;75.14
69574;BME280;62840;52.366;5.980;2024-03-06T08:31:52;102173.56;;;6.89;75.05
69574;BME280;62840;52.366;5.980;2024-03-06T08:34:18;102179.72;;;6.90;74.94
69574;BME280;62840;52.366;5.980;2024-03-06T08:36:47;102183.16;;;6.92;75.27
69574;BME280;62840;52.366;5.980;2024-03-06T08:39:13;102191.06;;;6.93;74.92
69574;BME280;62840;52.366;5.980;2024-03-06T08:41:39;102176.88;;;6.95;75.04
69574;BME280;62840;52.366;5.980;2024-03-06T08:44:04;102183.91;;;6.96;75.11
69574;BME280;62840;52.366;5.980;2024-03-06T08:46:30;102181.31;;;6.94;75.01
69574;BME280;62840;52.366;5.980;2024-03-06T08:48:56;102185.75;;;6.93;75.07
69574;BME280;62840;52.366;5.980;2024-03-06T08:51:22;102191.91;;;6.94;75.18
69574;BME280;62840;52.366;5.980;2024-03-06T08:53:50;102190.91;;;6.97;75.29
69574;BME280;62840;52.366;5.980;2024-03-06T08:56:16;102188.13;;;7.00;75.37
69574;BME280;62840;52.366;5.980;2024-03-06T08:58:42;102195.94;;;7.03;75.34
69574;BME280;62840;52.366;5.980;2024-03-06T09:01:08;102199.41;;;7.05;75.26
69574;BME280;62840;52.366;5.980;2024-03-06T09:03:34;102201.84;;;7.09;75.24
69574;BME280;62840;52.366;5.980;2024-03-06T09:06:00;102206.00;;;7.15;75.25
69574;BME280;62840;52.366;5.980;2024-03-06T09:08:25;102212.75;;;7.22;75.25
69574;BME280;62840;52.366;5.980;2024-03-06T09:10:54;102212.44;;;7.28;75.30
69574;BME280;62840;52.366;5.980;2024-03-06T09:13:20;102214.19;;;7.29;75.29
69574;BME280;62840;52.366;5.980;2024-03-06T09:15:46;102219.03;;;7.39;75.08
69574;BME280;62840;52.366;5.980;2024-03-06T09:18:11;102229.41;;;7.45;75.26
69574;BME280;62840;52.366;5.980;2024-03-06T09:20:37;102225.69;;;7.49;75.09
69574;BME280;62840;52.366;5.980;2024-03-06T09:23:04;102236.94;;;7.54;75.09
69574;BME280;62840;52.366;5.980;2024-03-06T09:25:29;102234.00;;;7.60;75.25
69574;BME280;62840;52.366;5.980;2024-03-06T09:27:58;102246.16;;;7.64;75.19
69574;BME280;62840;52.366;5.980;2024-03-06T09:30:24;102245.09;;;7.68;75.11
69574;BME280;62840;52.366;5.980;2024-03-06T09:32:50;102248.38;;;7.73;75.17
69574;BME280;62840;52.366;5.980;2024-03-06T09:35:16;102255.38;;;7.76;75.07
69574;BME280;62840;52.366;5.980;2024-03-06T09:37:45;102256.91;;;7.80;75.06
69574;BME280;62840;52.366;5.980;2024-03-06T09:40:11;102256.63;;;7.86;75.15
69574;BME280;62840;52.366;5.980;2024-03-06T09:42:45;102266.97;;;7.92;75.01
69574;BME280;62840;52.366;5.980;2024-03-06T09:45:14;102269.41;;;7.97;74.97
69574;BME280;62840;52.366;5.980;2024-03-06T09:47:40;102270.97;;;8.01;75.08
69574;BME280;62840;52.366;5.980;2024-03-06T09:50:09;102272.38;;;8.08;75.01
69574;BME280;62840;52.366;5.980;2024-03-06T09:52:39;102265.03;;;8.13;74.93
69574;BME280;62840;52.366;5.980;2024-03-06T09:55:07;102277.41;;;8.14;74.78
69574;BME280;62840;52.366;5.980;2024-03-06T09:57:33;102271.94;;;8.17;75.18
69574;BME280;62840;52.366;5.980;2024-03-06T09:59:59;102277.88;;;8.23;74.95
69574;BME280;62840;52.366;5.980;2024-03-06T10:02:35;102283.91;;;8.26;74.52
69574;BME280;62840;52.366;5.980;2024-03-06T10:05:04;102280.22;;;8.29;74.73
69574;BME280;62840;52.366;5.980;2024-03-06T10:07:31;102285.38;;;8.32;74.53
69574;BME280;62840;52.366;5.980;2024-03-06T10:09:57;102285.25;;;8.35;74.70
69574;BME280;62840;52.366;5.980;2024-03-06T10:12:23;102293.84;;;8.40;74.49
69574;BME280;62840;52.366;5.980;2024-03-06T10:14:49;102280.31;;;8.45;74.35
69574;BME280;62840;52.366;5.980;2024-03-06T10:17:19;102289.78;;;8.50;74.35
69574;BME280;62840;52.366;5.980;2024-03-06T10:19:48;102282.56;;;8.52;74.32
69574;BME280;62840;52.366;5.980;2024-03-06T10:22:15;102287.75;;;8.55;74.14
69574;BME280;62840;52.366;5.980;2024-03-06T10:24:41;102287.59;;;8.58;74.19
69574;BME280;62840;52.366;5.980;2024-03-06T10:27:06;102296.22;;;8.64;74.29
69574;BME280;62840;52.366;5.980;2024-03-06T10:29:32;102291.41;;;8.70;74.07
69574;BME280;62840;52.366;5.980;2024-03-06T10:31:58;102291.19;;;8.75;73.83
69574;BME280;62840;52.366;5.980;2024-03-06T10:34:25;102286.31;;;8.83;74.30
69574;BME280;62840;52.366;5.980;2024-03-06T10:36:56;102294.78;;;8.91;73.77
69574;BME280;62840;52.366;5.980;2024-03-06T10:39:24;102285.84;;;8.92;73.60
69574;BME280;62840;52.366;5.980;2024-03-06T10:41:52;102294.59;;;8.94;73.48
69574;BME280;62840;52.366;5.980;2024-03-06T10:44:21;102287.41;;;8.96;73.56
69574;BME280;62840;52.366;5.980;2024-03-06T10:46:54;102286.38;;;8.99;73.28
69574;BME280;62840;52.366;5.980;2024-03-06T10:49:23;102288.97;;;9.00;73.57
69574;BME280;62840;52.366;5.980;2024-03-06T10:51:51;102288.78;;;9.04;73.24
69574;BME280;62840;52.366;5.980;2024-03-06T10:54:21;102285.22;;;9.05;73.22
69574;BME280;62840;52.366;5.980;2024-03-06T10:56:50;102284.84;;;9.11;73.38
69574;BME280;62840;52.366;5.980;2024-03-06T10:59:18;102281.94;;;9.15;73.30
69574;BME280;62840;52.366;5.980;2024-03-06T11:01:46;102287.81;;;9.22;73.41
69574;BME280;62840;52.366;5.980;2024-03-06T11:04:13;102282.97;;;9.30;73.39
69574;BME280;62840;52.366;5.980;2024-03-06T11:06:39;102287.19;;;9.34;72.81
69574;BME280;62840;52.366;5.980;2024-03-06T11:09:05;102281.69;;;9.37;72.98
69574;BME280;62840;52.366;5.980;2024-03-06T11:11:47;102283.44;;;9.38;72.92
69574;BME280;62840;52.366;5.980;2024-03-06T11:14:14;102290.47;;;9.39;72.95
69574;BME280;62840;52.366;5.980;2024-03-06T11:16:58;102301.56;;;9.48;72.95
69574;BME280;62840;52.366;5.980;2024-03-06T11:19:26;102295.28;;;9.49;72.72
69574;BME280;62840;52.366;5.980;2024-03-06T11:21:52;102296.66;;;9.56;72.39
69574;BME280;62840;52.366;5.980;2024-03-06T11:24:20;102303.38;;;9.63;72.63
69574;BME280;62840;52.366;5.980;2024-03-06T11:26:53;102299.09;;;9.76;73.08
69574;BME280;62840;52.366;5.980;2024-03-06T11:29:21;102295.66;;;9.90;72.55
69574;BME280;62840;52.366;5.980;2024-03-06T11:31:59;102304.56;;;10.05;72.75
69574;BME280;62840;52.366;5.980;2024-03-06T11:34:27;102303.88;;;10.17;72.43
69574;BME280;62840;52.366;5.980;2024-03-06T11:36:53;102302.31;;;10.29;72.04
69574;BME280;62840;52.366;5.980;2024-03-06T11:39:22;102296.44;;;10.38;71.87
69574;BME280;62840;52.366;5.980;2024-03-06T11:41:51;102306.75;;;10.44;71.67
69574;BME280;62840;52.366;5.980;2024-03-06T11:44:17;102305.50;;;10.50;71.03
69574;BME280;62840;52.366;5.980;2024-03-06T11:46:45;102312.59;;;10.51;70.94
69574;BME280;62840;52.366;5.980;2024-03-06T11:49:16;102308.78;;;10.55;70.64
69574;BME280;62840;52.366;5.980;2024-03-06T11:51:44;102313.94;;;10.58;70.90
69574;BME280;62840;52.366;5.980;2024-03-06T11:54:13;102313.56;;;10.64;70.86
69574;BME280;62840;52.366;5.980;2024-03-06T11:56:39;102305.09;;;10.72;70.99
69574;BME280;62840;52.366;5.980;2024-03-06T11:59:07;102302.00;;;10.80;70.90
69574;BME280;62840;52.366;5.980;2024-03-06T12:01:33;102310.56;;;10.85;70.42
69574;BME280;62840;52.366;5.980;2024-03-06T12:04:00;102310.03;;;10.94;70.36
69574;BME280;62840;52.366;5.980;2024-03-06T12:06:27;102311.19;;;11.04;70.20
69574;BME280;62840;52.366;5.980;2024-03-06T12:08:53;102310.66;;;11.14;69.72
69574;BME280;62840;52.366;5.980;2024-03-06T12:11:19;102313.88;;;11.19;69.75
69574;BME280;62840;52.366;5.980;2024-03-06T12:13:45;102315.78;;;11.17;69.04
69574;BME280;62840;52.366;5.980;2024-03-06T12:16:14;102321.34;;;11.14;68.99
69574;BME280;62840;52.366;5.980;2024-03-06T12:18:41;102319.59;;;11.13;69.52
69574;BME280;62840;52.366;5.980;2024-03-06T12:21:07;102321.13;;;11.17;69.29
69574;BME280;62840;52.366;5.980;2024-03-06T12:23:33;102320.06;;;11.19;68.98
69574;BME280;62840;52.366;5.980;2024-03-06T12:26:05;102315.78;;;11.17;69.01
69574;BME280;62840;52.366;5.980;2024-03-06T12:28:32;102314.25;;;11.13;68.75
69574;BME280;62840;52.366;5.980;2024-03-06T12:31:02;102319.97;;;11.06;68.88
69574;BME280;62840;52.366;5.980;2024-03-06T12:33:31;102327.41;;;11.01;69.03
69574;BME280;62840;52.366;5.980;2024-03-06T12:36:02;102323.41;;;10.94;68.81
69574;BME280;62840;52.366;5.980;2024-03-06T12:38:29;102321.09;;;10.88;68.51
69574;BME280;62840;52.366;5.980;2024-03-06T12:40:55;102325.75;;;10.84;68.57
69574;BME280;62840;52.366;5.980;2024-03-06T12:43:21;102325.03;;;10.81;68.53
69574;BME280;62840;52.366;5.980;2024-03-06T12:45:47;102324.84;;;10.84;68.52
69574;BME280;62840;52.366;5.980;2024-03-06T12:48:13;102329.13;;;10.86;68.58
69574;BME280;62840;52.366;5.980;2024-03-06T12:50:41;102329.84;;;10.90;68.61
69574;BME280;62840;52.366;5.980;2024-03-06T12:53:07;102328.16;;;10.89;68.17
69574;BME280;62840;52.366;5.980;2024-03-06T12:55:33;102332.78;;;10.85;68.28
69574;BME280;62840;52.366;5.980;2024-03-06T12:57:59;102326.75;;;10.82;68.20